Time;durP1;ratioP1;P1;durP2;ratioP2;P2;SDS_P1;SDS_P2;PMS_P1;PMS_P2;Temp;Humidity;BMP_temperature;BMP_pressure;BME280_temperature;BME280_humidity;BME280_pressure;Samples;Min_cycle;Max_cycle;Signal;HPM_P1;HPM_P2
2022/10/22 00:02:14;;;;;;;17.92;11.40;;;;;;;6.32;70.15;101091.47;5088944;28;20039;-25
2022/10/22 00:04:40;;;;;;;20.55;10.35;;;;;;;5.84;70.60;101056.84;5107021;28;20049;-26
2022/10/22 00:07:05;;;;;;;20.17;10.20;;;;;;;6.04;70.67;101052.06;5107466;28;20027;-26
2022/10/22 00:09:31;;;;;;;18.17;9.80;;;;;;;6.13;71.29;101066.16;5107662;28;20130;-26
2022/10/22 00:11:56;;;;;;;17.92;9.95;;;;;;;5.62;69.97;101058.28;5071961;28;20168;-29
2022/10/22 00:14:22;;;;;;;21.27;10.73;;;;;;;5.87;69.65;101055.69;5107043;28;20154;-27
2022/10/22 00:16:47;;;;;;;41.75;18.42;;;;;;;6.02;69.59;101032.88;5107773;28;20015;-27
2022/10/22 00:19:13;;;;;;;30.10;14.15;;;;;;;5.90;71.06;101039.44;5107450;28;20038;-26
2022/10/22 00:21:39;;;;;;;26.38;11.13;;;;;;;6.15;68.13;101069.47;5107023;28;20087;-28
2022/10/22 00:24:04;;;;;;;24.40;11.50;;;;;;;5.75;68.78;101062.28;5107126;28;20023;-26
2022/10/22 00:26:30;;;;;;;22.98;11.23;;;;;;;5.87;69.02;101071.56;5106886;28;20036;-24
2022/10/22 00:28:55;;;;;;;23.23;11.20;;;;;;;5.75;69.35;101072.88;5106843;28;20027;-26
2022/10/22 00:31:21;;;;;;;22.30;11.02;;;;;;;5.54;70.16;101066.19;5107744;28;20664;-26
2022/10/22 00:33:47;;;;;;;20.20;10.95;;;;;;;5.44;69.51;101045.16;5107059;28;20023;-25
2022/10/22 00:36:13;;;;;;;22.52;12.07;;;;;;;5.44;69.62;101070.81;5107475;28;20031;-26
2022/10/22 00:38:39;;;;;;;21.63;10.90;;;;;;;5.66;68.35;101065.88;5106841;28;20024;-26
2022/10/22 00:41:05;;;;;;;22.15;11.18;;;;;;;5.87;68.99;101054.84;5088662;28;20035;-26
2022/10/22 00:43:31;;;;;;;25.30;11.95;;;;;;;5.68;69.08;101055.97;5106788;28;20081;-28
2022/10/22 00:45:56;;;;;;;22.17;10.40;;;;;;;5.19;70.62;101041.63;5088596;28;20446;-26
2022/10/22 00:48:28;;;;;;;20.50;10.07;;;;;;;4.86;72.08;101014.19;5106838;28;20035;-25
2022/10/22 00:51:02;;;;;;;19.15;10.45;;;;;;;5.27;70.90;101022.31;5106803;28;20028;-27
2022/10/22 00:53:40;;;;;;;20.52;9.93;;;;;;;5.55;69.91;101029.97;5106737;28;20031;-26
2022/10/22 00:56:06;;;;;;;24.77;9.73;;;;;;;5.45;70.94;101022.19;5107074;28;20024;-25
2022/10/22 00:58:35;;;;;;;16.65;9.68;;;;;;;5.73;69.92;101022.72;5106527;28;20110;-25
2022/10/22 01:01:02;;;;;;;18.98;9.95;;;;;;;5.82;69.87;101042.09;5090083;28;20127;-25
2022/10/22 01:03:27;;;;;;;15.60;8.48;;;;;;;5.85;69.35;101028.53;5110659;28;20114;-25
2022/10/22 01:05:58;;;;;;;14.02;8.43;;;;;;;5.81;69.51;101045.75;5110506;28;20541;-25
2022/10/22 01:08:48;;;;;;;18.70;8.18;;;;;;;5.09;71.81;101040.91;5110324;28;20053;-25
2022/10/22 01:11:27;;;;;;;16.70;8.25;;;;;;;4.96;71.01;101009.63;5111020;28;20039;-25
2022/10/22 01:14:03;;;;;;;22.30;9.50;;;;;;;5.50;69.35;101033.13;5092474;28;20023;-28
2022/10/22 01:16:46;;;;;;;24.17;10.60;;;;;;;4.83;70.08;101028.56;5110630;28;20034;-26
2022/10/22 01:19:17;;;;;;;19.25;9.10;;;;;;;4.85;70.98;101032.88;5110861;28;20542;-27
2022/10/22 01:21:57;;;;;;;21.75;10.02;;;;;;;5.16;68.74;101015.47;5110578;28;20032;-26
2022/10/22 01:24:31;;;;;;;24.92;12.23;;;;;;;4.79;69.88;100999.97;5110009;28;20719;-26
2022/10/22 01:27:13;;;;;;;22.00;11.32;;;;;;;4.87;69.04;101013.22;5110416;28;20042;-26
2022/10/22 01:29:48;;;;;;;18.08;9.20;;;;;;;5.01;69.27;101012.63;5110293;28;20384;-26
2022/10/22 01:32:17;;;;;;;14.82;7.25;;;;;;;5.07;71.58;101024.38;5110406;28;20044;-25
2022/10/22 01:34:48;;;;;;;15.73;8.10;;;;;;;5.33;70.74;101008.44;5109833;28;20035;-26
2022/10/22 01:37:16;;;;;;;16.63;8.90;;;;;;;5.28;70.28;101013.38;5110141;28;20513;-26
2022/10/22 01:39:45;;;;;;;16.95;8.18;;;;;;;5.72;69.06;101025.53;5109626;28;20024;-28
2022/10/22 01:42:12;;;;;;;14.68;7.78;;;;;;;5.81;69.26;101020.09;5110004;28;20058;-28
2022/10/22 01:44:37;;;;;;;13.43;8.55;;;;;;;5.82;69.27;101018.25;5109655;28;20030;-25
2022/10/22 01:47:30;;;;;;;20.05;8.93;;;;;;;5.62;71.13;101020.41;5109973;28;20020;-25
2022/10/22 01:50:03;;;;;;;22.55;10.00;;;;;;;5.41;73.33;101018.19;5109706;28;20030;-28
2022/10/22 01:52:31;;;;;;;24.10;12.32;;;;;;;5.39;74.98;101025.47;5091522;28;20466;-25
2022/10/22 01:55:41;;;;;;;21.60;12.32;;;;;;;5.51;74.22;101021.53;5109578;28;20066;-27
2022/10/22 01:58:24;;;;;;;24.13;12.98;;;;;;;5.86;72.55;100994.94;5006505;28;20112;-26
2022/10/22 02:00:59;;;;;;;25.02;13.38;;;;;;;5.69;73.44;100999.41;5006468;28;20038;-25
2022/10/22 02:03:29;;;;;;;25.95;13.73;;;;;;;5.98;72.05;101018.31;5072457;28;20040;-25
2022/10/22 02:06:00;;;;;;;25.08;13.35;;;;;;;5.77;72.32;100999.41;5090896;28;20495;-25
2022/10/22 02:08:32;;;;;;;29.33;13.88;;;;;;;5.77;71.79;101000.25;5109242;28;20614;-27
2022/10/22 02:10:59;;;;;;;21.90;12.32;;;;;;;5.89;70.87;101016.63;5108906;28;20399;-25
2022/10/22 02:13:32;;;;;;;20.60;10.35;;;;;;;5.57;70.15;101023.53;5109529;28;20035;-26
2022/10/22 02:15:58;;;;;;;17.48;8.60;;;;;;;5.00;70.33;101033.94;5109404;28;20031;-26
2022/10/22 02:18:29;;;;;;;18.42;9.90;;;;;;;4.95;71.53;101038.88;5109192;28;20608;-26
2022/10/22 02:20:54;;;;;;;23.85;10.52;;;;;;;5.06;70.96;101025.34;5109238;28;20054;-27
2022/10/22 02:23:21;;;;;;;22.67;11.80;;;;;;;5.17;70.45;101014.50;5108859;28;20399;-25
2022/10/22 02:25:50;;;;;;;24.85;14.73;;;;;;;4.94;73.13;101032.72;5109254;28;20087;-26
2022/10/22 02:28:28;;;;;;;19.70;9.88;;;;;;;4.78;71.72;101028.22;5108818;28;20028;-27
2022/10/22 02:31:05;;;;;;;22.23;10.10;;;;;;;4.70;70.71;101012.31;5109111;28;20414;-26
2022/10/22 02:33:36;;;;;;;26.65;14.23;;;;;;;4.79;71.33;101007.91;5090344;28;20040;-26
2022/10/22 02:36:02;;;;;;;35.65;16.70;;;;;;;4.98;71.96;101010.28;5108841;28;20092;-27
2022/10/22 02:38:29;;;;;;;29.52;16.50;;;;;;;4.97;72.48;101010.47;5108638;28;20051;-33
2022/10/22 02:40:55;;;;;;;27.13;17.10;;;;;;;5.04;71.77;101011.47;5109059;28;20027;-27
2022/10/22 02:43:23;;;;;;;23.67;12.18;;;;;;;4.59;72.71;101037.19;5108667;28;20163;-25
2022/10/22 02:45:48;;;;;;;22.00;10.95;;;;;;;4.69;70.88;101023.88;5108917;28;20058;-26
2022/10/22 02:48:14;;;;;;;17.52;10.68;;;;;;;5.13;70.09;101039.63;5108378;28;20028;-26
2022/10/22 02:50:39;;;;;;;25.33;11.45;;;;;;;4.47;72.25;101019.09;5108304;28;20110;-28
2022/10/22 02:53:05;;;;;;;22.75;11.88;;;;;;;4.97;70.26;101045.66;5108754;28;20142;-27
2022/10/22 02:55:30;;;;;;;23.10;10.85;;;;;;;4.93;70.42;101043.50;5108419;28;20509;-28
2022/10/22 02:57:55;;;;;;;19.63;11.45;;;;;;;4.68;71.00;101037.22;5090105;28;20027;-25
2022/10/22 03:00:21;;;;;;;21.67;11.70;;;;;;;4.67;70.95;101028.47;5108075;28;20047;-26
2022/10/22 03:02:47;;;;;;;20.33;10.10;;;;;;;4.69;70.63;101037.06;5108054;28;20024;-29
2022/10/22 03:05:12;;;;;;;21.33;11.32;;;;;;;4.49;70.48;101003.94;5089355;28;20143;-26
2022/10/22 03:07:38;;;;;;;20.08;10.68;;;;;;;4.33;71.40;101010.78;5108418;28;20570;-25
2022/10/22 03:10:04;;;;;;;20.35;10.70;;;;;;;4.37;71.97;101014.78;5108252;28;20031;-26
2022/10/22 03:12:29;;;;;;;20.02;11.75;;;;;;;4.63;72.34;101045.63;5107904;28;20030;-25
2022/10/22 03:14:55;;;;;;;20.90;11.55;;;;;;;4.46;73.54;101034.13;5108183;28;20027;-26
2022/10/22 03:17:20;;;;;;;23.73;12.18;;;;;;;4.67;73.66;101041.69;5108341;28;20052;-25
2022/10/22 03:19:46;;;;;;;22.15;11.55;;;;;;;4.73;72.85;101043.69;5107944;28;20036;-26
2022/10/22 03:22:19;;;;;;;19.33;11.80;;;;;;;4.68;72.93;101048.66;5107759;28;20024;-25
2022/10/22 03:24:49;;;;;;;19.55;11.10;;;;;;;4.66;72.95;101031.25;5089190;28;20491;-27
2022/10/22 03:27:17;;;;;;;22.80;11.43;;;;;;;4.78;72.64;101044.06;5107894;28;20052;-25
2022/10/22 03:29:43;;;;;;;19.45;11.10;;;;;;;4.56;73.72;101039.31;5107990;28;20495;-25
2022/10/22 03:32:09;;;;;;;19.70;11.60;;;;;;;4.47;73.94;101016.47;5108054;28;20125;-26
2022/10/22 03:34:34;;;;;;;23.88;12.60;;;;;;;4.60;73.77;101024.81;5108126;28;20027;-26
2022/10/22 03:37:00;;;;;;;21.67;12.13;;;;;;;4.69;72.79;101018.56;5089191;28;20020;-27
2022/10/22 03:39:30;;;;;;;22.25;13.25;;;;;;;4.74;72.25;101026.88;5108167;28;20038;-29
2022/10/22 03:41:56;;;;;;;18.63;12.88;;;;;;;4.56;73.46;101034.03;5089188;28;20032;-26
2022/10/22 03:44:23;;;;;;;19.60;12.30;;;;;;;4.27;74.26;101016.69;5107705;28;20079;-25
2022/10/22 03:46:48;;;;;;;22.65;12.90;;;;;;;4.63;72.99;101019.19;5107387;28;20063;-26
2022/10/22 03:49:14;;;;;;;21.95;13.55;;;;;;;4.85;71.64;101022.31;5089062;28;20047;-26
2022/10/22 03:51:39;;;;;;;21.10;12.90;;;;;;;4.61;72.83;101031.75;5089237;28;20693;-26
2022/10/22 03:54:05;;;;;;;22.30;12.85;;;;;;;4.61;73.08;101022.00;5107421;28;20062;-28
2022/10/22 03:56:31;;;;;;;26.08;13.60;;;;;;;4.39;74.63;101020.72;5088874;28;20027;-26
2022/10/22 03:58:58;;;;;;;21.70;12.93;;;;;;;4.80;73.95;101039.47;5088808;28;20035;-29
2022/10/22 04:01:24;;;;;;;22.20;13.43;;;;;;;4.71;73.70;101026.34;5106900;28;20031;-26
2022/10/22 04:03:49;;;;;;;23.88;13.80;;;;;;;4.40;74.72;101024.19;5107324;28;20035;-27
2022/10/22 04:06:15;;;;;;;20.60;12.80;;;;;;;4.33;74.56;101029.28;5107014;28;20052;-29
2022/10/22 04:08:43;;;;;;;21.42;13.10;;;;;;;4.29;74.31;101012.06;5107237;28;20035;-28
2022/10/22 04:11:09;;;;;;;21.92;12.25;;;;;;;4.13;74.86;101020.69;5107214;28;20027;-26
2022/10/22 04:13:35;;;;;;;18.42;11.63;;;;;;;4.28;74.00;101012.22;5107157;28;20038;-27
2022/10/22 04:16:16;;;;;;;23.67;12.98;;;;;;;4.38;73.98;101015.59;5107261;28;20023;-27
2022/10/22 04:18:44;;;;;;;25.42;11.93;;;;;;;4.23;73.59;101012.69;5107186;28;20031;-27
2022/10/22 04:21:11;;;;;;;19.50;12.75;;;;;;;4.20;72.97;101010.34;5107350;28;20069;-26
2022/10/22 04:23:38;;;;;;;22.97;11.63;;;;;;;3.67;75.53;101019.13;5107316;28;20043;-25
2022/10/22 04:26:06;;;;;;;23.67;12.77;;;;;;;4.25;72.85;101018.66;5088408;28;20027;-25
2022/10/22 04:28:33;;;;;;;19.45;11.82;;;;;;;4.41;71.59;100999.41;5107038;28;20028;-26
2022/10/22 04:30:58;;;;;;;23.98;12.27;;;;;;;4.50;71.52;101002.97;5107170;28;20035;-25
2022/10/22 04:33:24;;;;;;;24.45;12.10;;;;;;;4.43;72.33;101006.22;5106965;28;20050;-25
2022/10/22 04:35:49;;;;;;;25.83;11.95;;;;;;;4.05;74.74;101014.53;5110576;28;20051;-30
2022/10/22 04:38:15;;;;;;;30.25;12.80;;;;;;;4.43;73.36;101022.06;5111144;28;20072;-31
2022/10/22 04:40:41;;;;;;;24.75;13.18;;;;;;;4.31;74.00;101004.81;5111281;28;20487;-28
2022/10/22 04:43:06;;;;;;;21.67;13.23;;;;;;;4.63;72.81;101016.56;5111095;28;20502;-27
2022/10/22 04:45:33;;;;;;;24.63;14.07;;;;;;;4.57;73.63;100990.78;5111122;28;20039;-26
2022/10/22 04:47:58;;;;;;;19.95;13.05;;;;;;;4.63;73.17;101003.34;5092628;28;20049;-26
2022/10/22 04:50:24;;;;;;;20.50;13.02;;;;;;;4.49;73.02;101012.69;5092429;28;20483;-25
2022/10/22 04:52:49;;;;;;;33.90;17.98;;;;;;;4.56;73.65;101024.28;5110776;28;20499;-28
2022/10/22 04:55:15;;;;;;;34.50;19.67;;;;;;;4.60;74.62;101024.81;5092382;28;20031;-27
2022/10/22 04:57:40;;;;;;;36.28;19.40;;;;;;;4.69;74.27;101029.16;5110865;28;20111;-30
2022/10/22 05:00:07;;;;;;;34.40;20.45;;;;;;;4.71;74.19;101021.91;5110645;28;20028;-25
2022/10/22 05:02:32;;;;;;;38.13;20.70;;;;;;;4.44;74.97;101020.25;5110860;28;20425;-25
2022/10/22 05:04:57;;;;;;;104.90;39.47;;;;;;;4.75;74.02;101039.09;5110548;28;20044;-27
2022/10/22 05:07:23;;;;;;;62.97;27.83;;;;;;;4.22;75.64;101014.47;5110973;28;20031;-29
2022/10/22 05:09:49;;;;;;;50.40;21.77;;;;;;;4.41;73.31;101041.69;5110572;28;20059;-28
2022/10/22 05:12:14;;;;;;;39.47;18.70;;;;;;;4.48;73.31;101031.34;5110515;28;20031;-29
2022/10/22 05:14:39;;;;;;;37.92;17.63;;;;;;;4.21;74.06;101041.06;5091920;28;20046;-27
2022/10/22 05:17:05;;;;;;;32.03;16.13;;;;;;;4.22;74.14;101032.97;5110755;28;20024;-28
2022/10/22 05:19:32;;;;;;;39.00;18.55;;;;;;;4.38;73.39;101031.44;5110449;28;20115;-28
2022/10/22 05:22:00;;;;;;;34.03;17.17;;;;;;;4.42;72.18;101030.16;5110319;28;20432;-26
2022/10/22 05:24:27;;;;;;;37.03;16.80;;;;;;;4.16;72.88;101038.03;5091633;28;20034;-31
2022/10/22 05:26:54;;;;;;;45.88;23.10;;;;;;;3.87;74.46;101027.72;5110189;28;20494;-27
2022/10/22 05:29:21;;;;;;;44.95;19.83;;;;;;;4.20;72.84;101029.66;5092102;28;20184;-30
2022/10/22 05:31:46;;;;;;;51.35;23.20;;;;;;;4.51;72.50;101031.03;5109914;28;20050;-28
2022/10/22 05:34:12;;;;;;;54.13;23.08;;;;;;;4.78;72.64;101038.78;5110104;28;20489;-28
2022/10/22 05:36:38;;;;;;;46.45;20.35;;;;;;;4.72;73.31;101034.13;5109427;28;20020;-26
2022/10/22 05:39:04;;;;;;;41.28;19.60;;;;;;;4.96;73.46;101036.03;5109991;28;20777;-27
2022/10/22 05:41:29;;;;;;;37.50;18.40;;;;;;;4.70;75.26;101029.97;5110075;28;20039;-27
2022/10/22 05:43:57;;;;;;;35.70;16.23;;;;;;;4.80;75.03;101031.53;5109960;28;20110;-27
2022/10/22 05:46:26;;;;;;;32.40;15.68;;;;;;;4.69;76.42;101033.63;5109047;28;20024;-28
2022/10/22 05:48:57;;;;;;;27.13;15.63;;;;;;;4.92;75.91;101045.28;5110099;28;20119;-28
2022/10/22 05:51:24;;;;;;;31.35;15.85;;;;;;;4.70;77.58;101017.59;5091328;28;20031;-28
2022/10/22 05:53:58;;;;;;;30.88;17.25;;;;;;;4.85;77.60;101012.56;5090879;28;20039;-27
2022/10/22 05:56:25;;;;;;;34.75;17.20;;;;;;;5.23;77.29;101026.25;5091133;28;20093;-29
2022/10/22 05:58:50;;;;;;;34.33;16.90;;;;;;;5.67;75.74;101035.78;5109490;28;20096;-31
2022/10/22 06:01:22;;;;;;;38.05;19.80;;;;;;;5.57;76.29;101028.81;5090847;28;20031;-26
2022/10/22 06:03:48;;;;;;;43.58;28.83;;;;;;;5.44;77.06;101024.00;5109050;28;20031;-27
2022/10/22 06:06:20;;;;;;;43.90;28.05;;;;;;;5.52;77.11;100999.38;5109451;28;20027;-26
2022/10/22 06:08:48;;;;;;;40.05;25.42;;;;;;;6.07;76.80;101029.75;5109660;28;20035;-28
2022/10/22 06:11:16;;;;;;;40.03;22.63;;;;;;;6.48;74.57;101015.63;5109680;28;20035;-30
2022/10/22 06:13:42;;;;;;;32.08;21.17;;;;;;;6.28;76.49;101016.00;5090963;28;20046;-27
2022/10/22 06:16:08;;;;;;;32.28;20.95;;;;;;;6.32;76.58;101017.31;5109571;28;20038;-26
2022/10/22 06:18:33;;;;;;;33.28;22.92;;;;;;;6.39;76.70;101010.31;5108888;28;20622;-27
2022/10/22 06:21:11;;;;;;;40.22;25.80;;;;;;;6.86;74.71;101021.97;5109069;28;20229;-28
2022/10/22 06:23:37;;;;;;;41.20;23.88;;;;;;;6.87;74.01;101017.53;5109323;28;20024;-27
2022/10/22 06:26:03;;;;;;;31.10;19.13;;;;;;;6.89;74.37;101028.78;5109242;28;20112;-27
2022/10/22 06:28:29;;;;;;;34.65;19.35;;;;;;;7.21;72.70;101027.81;5108884;28;20566;-27
2022/10/22 06:30:59;;;;;;;33.38;18.10;;;;;;;7.64;71.26;101023.78;5108965;28;20038;-27
2022/10/22 06:33:26;;;;;;;26.15;14.30;;;;;;;7.78;70.68;101018.69;5108814;28;20062;-30
2022/10/22 06:35:52;;;;;;;29.45;15.30;;;;;;;8.03;69.44;101017.50;5108870;28;20090;-27
2022/10/22 06:38:17;;;;;;;33.50;18.05;;;;;;;8.36;68.27;101027.84;5090314;28;20471;-28
2022/10/22 06:40:43;;;;;;;25.75;13.25;;;;;;;8.60;67.30;101023.31;5109190;28;20031;-28
2022/10/22 06:43:10;;;;;;;24.10;13.07;;;;;;;8.59;67.27;101017.16;5109023;28;20080;-27
2022/10/22 06:45:36;;;;;;;20.33;11.75;;;;;;;8.88;66.16;101025.34;5108638;28;20102;-30
2022/10/22 06:48:01;;;;;;;16.33;10.35;;;;;;;9.19;65.02;101019.81;5090222;28;20127;-28
2022/10/22 06:50:26;;;;;;;17.25;10.48;;;;;;;9.08;64.69;101026.44;5108529;28;20024;-28
2022/10/22 06:52:52;;;;;;;29.85;15.40;;;;;;;9.28;64.29;101015.22;5108679;28;20067;-31
2022/10/22 06:55:17;;;;;;;14.95;9.75;;;;;;;9.36;65.16;101029.22;5108836;28;20032;-27
2022/10/22 06:57:43;;;;;;;18.23;8.70;;;;;;;9.30;65.03;101029.16;5108809;28;20031;-26
2022/10/22 07:00:09;;;;;;;19.25;11.20;;;;;;;9.60;64.18;101030.75;5108894;28;20059;-30
2022/10/22 07:02:34;;;;;;;15.85;9.55;;;;;;;9.98;63.03;101035.81;5107894;28;20035;-28
2022/10/22 07:05:00;;;;;;;15.68;9.35;;;;;;;9.97;62.39;101025.34;5108398;28;20048;-27
2022/10/22 07:07:25;;;;;;;37.40;20.13;;;;;;;10.38;62.73;101032.66;5089902;28;20628;-27
2022/10/22 07:09:50;;;;;;;22.30;11.90;;;;;;;10.49;61.43;101039.34;5108732;28;20814;-27
2022/10/22 07:12:16;;;;;;;24.10;15.55;;;;;;;10.63;60.74;101039.22;5108290;28;20691;-30
2022/10/22 07:14:41;;;;;;;32.30;19.92;;;;;;;10.72;60.45;101044.41;5108116;28;20046;-32
2022/10/22 07:17:07;;;;;;;70.47;45.75;;;;;;;10.64;61.62;101046.22;5089577;28;20023;-28
2022/10/22 07:19:33;;;;;;;18.55;9.65;;;;;;;10.89;60.62;101050.25;5108218;28;20042;-28
2022/10/22 07:21:58;;;;;;;19.98;11.63;;;;;;;10.71;61.12;101030.25;5089708;28;20817;-26
2022/10/22 07:24:24;;;;;;;27.73;17.52;;;;;;;11.15;59.43;101055.72;5107910;28;20495;-30
2022/10/22 07:26:49;;;;;;;22.75;11.82;;;;;;;11.03;59.58;101030.59;5108061;28;20031;-27
2022/10/22 07:29:15;;;;;;;22.15;14.98;;;;;;;11.32;58.95;101005.50;5107804;28;20509;-29
2022/10/22 07:31:41;;;;;;;29.88;17.48;;;;;;;11.66;59.22;101041.94;5108030;28;20114;-27
2022/10/22 07:34:06;;;;;;;15.75;8.38;;;;;;;11.91;58.03;101044.09;5089540;28;20082;-28
2022/10/22 07:36:32;;;;;;;13.15;6.70;;;;;;;12.03;58.29;101013.03;5107715;28;20086;-31
2022/10/22 07:38:58;;;;;;;13.35;6.93;;;;;;;12.08;58.71;101011.59;5108232;28;20450;-27
2022/10/22 07:41:25;;;;;;;21.48;8.45;;;;;;;12.22;58.38;101021.28;5107759;28;20765;-27
2022/10/22 07:43:50;;;;;;;15.60;7.70;;;;;;;11.94;57.51;101016.94;5107705;28;20035;-28
2022/10/22 07:46:16;;;;;;;11.32;6.65;;;;;;;12.31;57.00;101033.41;5107037;28;20106;-30
2022/10/22 07:48:41;;;;;;;14.60;7.82;;;;;;;12.31;56.15;101033.41;5108017;28;20042;-27
2022/10/22 07:51:07;;;;;;;13.05;7.03;;;;;;;12.24;57.26;101019.22;5107661;28;20053;-27
2022/10/22 07:53:32;;;;;;;13.45;7.97;;;;;;;12.38;56.89;101018.19;5107748;28;20054;-30
2022/10/22 07:55:58;;;;;;;14.98;8.27;;;;;;;12.25;58.13;101027.00;5107499;28;20072;-27
2022/10/22 07:58:23;;;;;;;12.85;8.00;;;;;;;12.52;56.37;101013.59;5088636;28;20035;-28
2022/10/22 08:00:50;;;;;;;13.50;7.85;;;;;;;12.71;56.24;101019.13;5107294;28;20084;-28
2022/10/22 08:03:17;;;;;;;14.32;8.57;;;;;;;13.01;54.57;101016.78;5088726;28;20522;-29
2022/10/22 08:05:43;;;;;;;14.88;8.90;;;;;;;13.10;54.27;101015.53;5107327;28;20054;-32
2022/10/22 08:08:10;;;;;;;14.18;8.77;;;;;;;13.36;54.47;101019.13;5107061;28;20031;-27
2022/10/22 08:10:35;;;;;;;15.73;8.00;;;;;;;13.49;54.34;101013.72;5106727;28;20032;-28
2022/10/22 08:13:01;;;;;;;11.63;7.32;;;;;;;13.46;54.11;101016.81;5107020;28;20035;-28
2022/10/22 08:15:26;;;;;;;13.93;7.75;;;;;;;13.72;54.19;101023.88;5088579;28;20037;-27
2022/10/22 08:17:52;;;;;;;17.08;9.02;;;;;;;13.64;54.68;101016.09;5107644;28;20081;-27
2022/10/22 08:20:18;;;;;;;12.45;7.43;;;;;;;13.82;54.13;101020.72;5106865;28;20038;-28
2022/10/22 08:22:44;;;;;;;15.18;8.93;;;;;;;13.80;53.38;101017.44;5107422;28;20031;-27
2022/10/22 08:25:10;;;;;;;14.60;9.60;;;;;;;13.96;52.69;101013.41;5107186;28;20042;-26
2022/10/22 08:27:35;;;;;;;15.48;9.05;;;;;;;13.95;53.00;101011.75;5107109;28;20107;-27
2022/10/22 08:30:04;;;;;;;14.02;8.95;;;;;;;13.83;52.09;101015.16;5088452;28;20415;-27
2022/10/22 08:32:30;;;;;;;12.38;9.07;;;;;;;13.94;53.36;101016.31;5107030;28;20019;-28
2022/10/22 08:34:55;;;;;;;15.55;8.93;;;;;;;14.04;52.15;100999.75;5107164;28;20522;-29
2022/10/22 08:37:21;;;;;;;14.10;8.90;;;;;;;14.07;52.94;101005.47;5088694;28;20035;-28
2022/10/22 08:39:46;;;;;;;13.13;8.95;;;;;;;14.31;53.27;101008.38;5106963;28;20495;-29
2022/10/22 08:42:30;;;;;;;15.43;8.50;;;;;;;14.53;52.21;101007.97;5106964;28;20072;-26
2022/10/22 08:45:14;;;;;;;15.88;8.70;;;;;;;14.51;52.07;101002.00;5107005;28;20031;-28
2022/10/22 08:48:16;;;;;;;16.30;9.20;;;;;;;14.73;50.92;101008.63;5107256;28;20031;-29
2022/10/22 08:50:45;;;;;;;14.10;9.55;;;;;;;14.65;52.00;101006.22;5106727;28;20490;-27
2022/10/22 08:53:14;;;;;;;14.20;9.10;;;;;;;14.57;51.67;100998.47;5106976;28;20521;-28
2022/10/22 08:55:40;;;;;;;14.43;9.57;;;;;;;14.71;51.38;100999.13;5107072;28;20062;-26
2022/10/22 08:58:32;;;;;;;12.23;8.60;;;;;;;14.92;52.73;100979.06;5106971;28;20051;-28
2022/10/22 09:01:24;;;;;;;13.20;9.30;;;;;;;15.23;50.58;100989.63;5106960;28;20489;-28
2022/10/22 09:04:00;;;;;;;13.88;8.18;;;;;;;15.28;49.92;100972.78;5106507;28;20049;-28
2022/10/22 09:06:28;;;;;;;14.65;9.40;;;;;;;15.72;49.52;100981.50;5107126;28;20032;-27
2022/10/22 09:08:57;;;;;;;17.10;8.55;;;;;;;15.56;49.77;100963.31;5106703;28;20039;-28
2022/10/22 09:11:31;;;;;;;14.43;8.93;;;;;;;15.50;48.79;100958.84;5088228;28;20032;-28
2022/10/22 09:13:58;;;;;;;12.98;8.57;;;;;;;15.85;48.91;100975.09;5106800;28;20384;-28
2022/10/22 09:16:37;;;;;;;13.93;9.35;;;;;;;15.92;48.28;100978.50;5106353;28;20028;-27
2022/10/22 09:19:02;;;;;;;12.27;8.25;;;;;;;15.66;48.17;100968.97;5106401;28;20036;-33
2022/10/22 09:21:33;;;;;;;17.95;9.63;;;;;;;16.09;47.84;100964.38;5107567;28;20030;-30
2022/10/22 09:24:01;;;;;;;14.95;9.52;;;;;;;16.36;47.56;100970.91;5110248;28;20540;-27
2022/10/22 09:26:26;;;;;;;;;;;;;;;16.32;46.80;100977.81;5092010;28;20773;-28
2022/10/22 09:28:52;;;;;;;16.98;10.07;;;;;;;16.28;47.16;100971.25;5110251;28;19914;-29
2022/10/22 09:31:18;;;;;;;15.50;10.43;;;;;;;16.28;46.99;100971.25;5110211;28;20092;-27
2022/10/22 09:33:47;;;;;;;17.83;10.63;;;;;;;16.49;47.43;100964.47;5110012;28;20028;-30
2022/10/22 09:36:20;;;;;;;13.90;9.80;;;;;;;16.83;46.02;100935.84;5109966;28;20028;-27
2022/10/22 09:38:51;;;;;;;15.77;10.70;;;;;;;16.99;46.37;100944.25;5109779;28;20031;-27
2022/10/22 09:41:18;;;;;;;370.38;247.20;;;;;;;17.33;43.35;100936.25;5110128;28;20027;-29
2022/10/22 09:43:48;;;;;;;22.02;12.20;;;;;;;17.11;44.36;100947.72;5091472;28;20429;-31
2022/10/22 09:46:17;;;;;;;15.82;11.95;;;;;;;16.86;44.83;100924.59;5091330;28;20414;-27
2022/10/22 09:48:49;;;;;;;17.95;11.18;;;;;;;17.26;45.80;100942.63;5109938;28;20482;-27
2022/10/22 09:51:35;;;;;;;140.15;63.03;;;;;;;17.70;43.18;100933.09;5109653;28;20123;-30
2022/10/22 09:54:12;;;;;;;18.38;12.05;;;;;;;17.66;43.41;100922.78;5109625;28;20030;-30
2022/10/22 09:56:45;;;;;;;19.77;11.95;;;;;;;17.46;43.01;100919.75;5091044;28;20035;-28
2022/10/22 09:59:23;;;;;;;18.55;11.35;;;;;;;17.52;43.15;100924.16;5109501;28;20034;-28
2022/10/22 10:01:56;;;;;;;18.67;12.27;;;;;;;17.94;43.27;100901.38;5090912;28;20031;-27
2022/10/22 10:04:21;;;;;;;64.00;32.70;;;;;;;18.21;41.99;100920.41;5109357;28;20048;-28
2022/10/22 10:06:54;;;;;;;49.38;27.38;;;;;;;18.61;40.89;100909.31;5109690;28;20701;-28
2022/10/22 10:09:21;;;;;;;20.83;14.48;;;;;;;18.82;42.05;100901.50;5109461;28;20032;-27
2022/10/22 10:12:18;;;;;;;23.35;13.32;;;;;;;19.05;40.60;100916.59;5109307;28;20019;-27
2022/10/22 10:14:46;;;;;;;48.65;13.23;;;;;;;18.92;41.46;100908.88;5109403;28;20033;-27
2022/10/22 10:17:23;;;;;;;16.98;11.20;;;;;;;19.03;39.96;100891.69;5109537;28;20058;-27
2022/10/22 10:19:51;;;;;;;16.20;11.35;;;;;;;19.78;40.12;100897.25;5109091;28;20034;-32
2022/10/22 10:22:38;;;;;;;19.60;11.40;;;;;;;20.35;38.54;100892.94;5109006;28;20035;-28
2022/10/22 10:25:30;;;;;;;71.05;41.08;;;;;;;20.48;37.32;100881.66;5108985;28;20051;-28
2022/10/22 10:28:18;;;;;;;19.75;11.70;;;;;;;20.52;37.35;100877.31;5109125;28;20118;-31
2022/10/22 10:31:02;;;;;;;14.85;10.85;;;;;;;20.10;38.00;100880.91;5109185;28;20510;-27
2022/10/22 10:33:40;;;;;;;14.27;10.32;;;;;;;19.72;38.96;100858.50;5109161;28;20038;-28
2022/10/22 10:36:16;;;;;;;18.00;10.35;;;;;;;20.09;38.00;100870.38;5090540;28;20537;-28
2022/10/22 10:39:16;;;;;;;14.82;10.50;;;;;;;20.50;38.10;100870.56;5090508;28;20035;-31
2022/10/22 10:41:58;;;;;;;16.92;9.82;;;;;;;20.87;36.75;100844.09;5109323;28;20052;-30
2022/10/22 10:44:51;;;;;;;14.43;9.57;;;;;;;20.78;36.45;100847.59;5090245;28;20122;-31
2022/10/22 10:47:48;;;;;;;14.50;9.48;;;;;;;21.10;36.27;100824.88;5090353;28;20512;-27
2022/10/22 10:50:26;;;;;;;242.10;136.00;;;;;;;21.03;35.60;100836.00;5090026;28;20518;-31
2022/10/22 10:53:13;;;;;;;16.05;10.02;;;;;;;20.71;36.31;100819.97;5108556;28;20055;-29
2022/10/22 10:56:15;;;;;;;14.77;9.88;;;;;;;20.70;36.25;100832.69;5108608;28;20027;-28
2022/10/22 10:59:11;;;;;;;14.02;8.43;;;;;;;21.28;36.53;100814.28;5103606;28;20040;-27
2022/10/22 11:01:49;;;;;;;13.93;9.02;;;;;;;21.22;36.25;100796.41;5108679;28;20044;-29
2022/10/22 11:04:40;;;;;;;13.50;9.00;;;;;;;21.24;35.02;100809.69;5089769;28;20062;-33
2022/10/22 11:07:11;;;;;;;16.77;10.23;;;;;;;20.89;36.09;100805.88;5108576;28;20019;-28
2022/10/22 11:09:47;;;;;;;35.40;19.83;;;;;;;21.27;35.10;100806.44;5090098;28;20064;-28
2022/10/22 11:12:22;;;;;;;53.95;30.55;;;;;;;21.53;34.42;100790.16;5108386;28;20042;-31
2022/10/22 11:15:21;;;;;;;116.10;54.47;;;;;;;21.95;34.04;100803.34;5108255;28;20112;-27
2022/10/22 11:17:48;;;;;;;45.05;22.85;;;;;;;22.27;33.94;100791.28;5108195;28;20038;-29
2022/10/22 11:20:21;;;;;;;83.82;38.72;;;;;;;22.30;33.56;100788.00;5108178;28;20115;-27
2022/10/22 11:22:58;;;;;;;15.65;9.55;;;;;;;22.70;32.66;100794.31;5108032;28;20088;-30
2022/10/22 11:25:45;;;;;;;16.40;11.00;;;;;;;22.37;32.40;100799.41;5089117;28;20064;-27
2022/10/22 11:28:22;;;;;;;13.37;8.73;;;;;;;22.20;33.85;100785.31;5107566;28;20118;-31
2022/10/22 11:31:00;;;;;;;11.52;8.38;;;;;;;21.95;32.47;100759.91;5089300;28;20533;-28